Time;durP1;ratioP1;P1;durP2;ratioP2;P2;SDS_P1;SDS_P2;PMS_P1;PMS_P2;Temp;Humidity;BMP_temperature;BMP_pressure;BME280_temperature;BME280_humidity;BME280_pressure;Samples;Min_cycle;Max_cycle;Signal;HPM_P1;HPM_P2
2022/11/10 00:01:59;;;;;;;31.60;20.08;;;;;;;13.53;85.38;101185.28;5013338;28;20041;-84
2022/11/10 00:05:03;;;;;;;25.23;18.17;;;;;;;13.57;85.57;101188.16;5013171;28;20046;-83
2022/11/10 00:08:10;;;;;;;26.52;17.48;;;;;;;13.56;85.63;101183.84;5013400;28;20042;-82
2022/11/10 00:11:14;;;;;;;31.88;18.15;;;;;;;13.53;85.70;101185.28;5013105;28;20054;-82
2022/11/10 00:17:39;;;;;;;27.90;18.50;;;;;;;13.53;86.06;101184.47;5013118;28;20038;-81
2022/11/10 00:20:43;;;;;;;27.17;18.95;;;;;;;13.55;85.88;101184.97;5013026;28;20046;-81
2022/11/10 00:23:46;;;;;;;26.33;18.98;;;;;;;13.56;85.14;101187.38;5013259;28;20045;-83
2022/11/10 00:26:50;;;;;;;33.72;21.52;;;;;;;13.56;85.67;101189.31;5013844;28;20042;-82
2022/11/10 00:29:54;;;;;;;35.92;22.50;;;;;;;13.62;85.15;101186.06;5014072;28;20038;-83
2022/11/10 00:32:57;;;;;;;38.67;24.17;;;;;;;13.71;85.34;101192.31;5013922;28;20050;-84
2022/11/10 00:36:01;;;;;;;37.17;24.85;;;;;;;13.68;85.47;101187.53;5014523;28;20042;-84
2022/11/10 00:39:05;;;;;;;35.53;24.20;;;;;;;13.74;84.91;101187.34;5013610;28;20064;-83
2022/11/10 00:42:09;;;;;;;34.72;22.05;;;;;;;13.95;83.64;101197.28;5013296;28;20046;-82
2022/11/10 00:45:13;;;;;;;33.25;21.85;;;;;;;13.89;84.92;101184.09;5015240;28;20505;-83
2022/11/10 00:48:17;;;;;;;33.55;21.65;;;;;;;14.25;82.56;101195.41;5016590;28;20046;-84
2022/11/10 00:51:20;;;;;;;38.08;24.05;;;;;;;14.13;83.07;101189.81;5015235;28;20042;-84
2022/11/10 00:54:23;;;;;;;38.05;25.95;;;;;;;13.92;83.08;101184.25;5015495;28;20038;-84
2022/11/10 00:57:27;;;;;;;46.15;26.38;;;;;;;13.71;85.44;101183.34;5014861;28;20490;-84
2022/11/10 01:00:30;;;;;;;44.75;30.00;;;;;;;13.75;85.42;101183.50;5015204;28;20046;-82
2022/11/10 01:03:34;;;;;;;52.47;34.30;;;;;;;13.74;85.61;101193.63;5015189;28;20389;-84
2022/11/10 01:06:37;;;;;;;59.90;34.45;;;;;;;13.63;85.99;101187.69;5015251;28;20042;-82
2022/11/10 01:09:41;;;;;;;54.22;35.60;;;;;;;13.72;86.14;101195.88;5015469;28;20037;-84
2022/11/10 01:12:45;;;;;;;56.25;36.45;;;;;;;13.71;86.03;101184.13;5057327;22;20049;-79
2022/11/10 01:15:49;;;;;;;61.83;39.03;;;;;;;13.80;85.29;101186.06;5051483;28;20037;-79
2022/11/10 01:18:55;;;;;;;63.28;39.97;;;;;;;13.82;85.54;101179.13;5051657;28;20041;-80
2022/11/10 01:21:59;;;;;;;64.60;39.40;;;;;;;13.88;84.65;101185.22;5057411;28;20044;-80
2022/11/10 01:25:03;;;;;;;57.65;37.40;;;;;;;13.75;85.15;101191.69;5071975;28;20419;-80
2022/11/10 01:28:07;;;;;;;62.28;38.53;;;;;;;13.76;85.27;101185.09;5071876;28;20044;-79
2022/11/10 01:31:13;;;;;;;59.88;38.92;;;;;;;13.75;84.96;101186.22;5071493;28;20036;-79
2022/11/10 01:34:17;;;;;;;68.32;40.05;;;;;;;13.58;85.93;101190.59;5071429;28;20040;-80
2022/11/10 01:37:20;;;;;;;63.65;40.25;;;;;;;13.50;86.78;101185.16;5071743;28;20048;-80
2022/11/10 01:40:23;;;;;;;62.15;39.25;;;;;;;13.62;86.05;101185.28;5071534;28;20037;-80
2022/11/10 01:43:27;;;;;;;64.63;39.13;;;;;;;13.63;86.06;101179.50;5071552;28;20052;-80
2022/11/10 01:46:31;;;;;;;62.60;38.47;;;;;;;13.66;85.93;101181.56;5071784;28;20111;-80
2022/11/10 01:49:34;;;;;;;62.20;39.40;;;;;;;13.68;86.05;101187.53;5071563;28;20049;-79
2022/11/10 01:52:39;;;;;;;56.47;37.67;;;;;;;13.78;85.75;101188.28;5072090;28;20045;-81
2022/11/10 01:55:45;;;;;;;57.30;34.88;;;;;;;13.85;84.85;101177.69;5074734;28;20044;-80
2022/11/10 01:58:55;;;;;;;53.55;35.03;;;;;;;13.92;84.18;101178.78;5074754;28;20036;-81
2022/11/10 02:02:09;;;;;;;53.00;33.72;;;;;;;13.85;84.20;101175.75;5075070;28;20052;-81
2022/11/10 02:05:12;;;;;;;52.50;33.13;;;;;;;13.76;84.72;101179.63;5074998;28;20040;-80
2022/11/10 02:08:17;;;;;;;54.47;33.95;;;;;;;13.68;85.10;101176.59;5075084;28;20492;-81
2022/11/10 02:11:22;;;;;;;48.83;33.13;;;;;;;13.61;85.57;101183.69;5074782;28;20048;-81
2022/11/10 02:14:25;;;;;;;52.95;31.65;;;;;;;13.56;85.53;101173.69;5067721;28;20044;-80
2022/11/10 02:17:29;;;;;;;51.75;33.65;;;;;;;13.59;85.79;101175.81;5074620;28;20041;-81
2022/11/10 02:20:33;;;;;;;51.15;31.75;;;;;;;13.69;85.45;101174.66;5074701;28;20048;-81
2022/11/10 02:23:36;;;;;;;50.97;30.67;;;;;;;13.73;85.06;101180.28;5074472;28;20507;-81
2022/11/10 02:26:51;;;;;;;43.63;28.52;;;;;;;13.77;84.88;101178.47;5074481;28;20037;-80
2022/11/10 02:29:56;;;;;;;43.35;27.95;;;;;;;13.72;84.64;101179.47;5074667;28;20048;-80
2022/11/10 02:33:01;;;;;;;40.40;25.95;;;;;;;13.68;84.61;101171.13;5074259;28;20049;-81
2022/11/10 02:36:05;;;;;;;36.95;25.77;;;;;;;13.66;85.24;101176.09;5074483;28;20503;-80
2022/11/10 02:39:09;;;;;;;41.92;26.63;;;;;;;13.66;85.37;101189.00;5074295;28;20041;-80
2022/11/10 02:42:12;;;;;;;37.58;23.98;;;;;;;13.69;85.35;101189.13;5074031;28;20036;-81
2022/11/10 02:45:16;;;;;;;37.17;24.42;;;;;;;13.70;85.49;101192.66;5074105;28;20048;-80
2022/11/10 02:48:19;;;;;;;38.72;25.02;;;;;;;13.73;85.04;101188.47;5074264;28;20103;-80
2022/11/10 02:51:23;;;;;;;34.95;23.20;;;;;;;13.77;84.92;101189.41;5074106;28;20044;-80
2022/11/10 02:54:26;;;;;;;40.95;26.27;;;;;;;13.74;84.99;101188.16;5073908;28;20037;-80
2022/11/10 02:57:30;;;;;;;39.83;26.23;;;;;;;13.71;85.30;101195.06;5073612;28;20048;-80
2022/11/10 03:00:33;;;;;;;45.10;27.73;;;;;;;13.71;85.50;101192.31;5073624;28;20040;-80
2022/11/10 03:03:37;;;;;;;42.08;27.73;;;;;;;13.76;85.36;101204.25;5073431;28;20048;-81
2022/11/10 03:06:40;;;;;;;43.65;27.25;;;;;;;13.75;84.98;101188.97;5073814;28;20500;-80
2022/11/10 03:09:44;;;;;;;49.88;29.42;;;;;;;13.78;84.84;101193.75;5073847;28;20044;-80
2022/11/10 03:12:47;;;;;;;46.78;30.42;;;;;;;13.69;85.51;101208.25;5073345;28;20048;-80
2022/11/10 03:15:51;;;;;;;51.08;31.08;;;;;;;13.68;85.74;101205.84;5073445;28;20044;-80
2022/11/10 03:18:55;;;;;;;44.55;28.90;;;;;;;13.63;86.24;101206.00;5073310;28;20503;-80
2022/11/10 03:21:58;;;;;;;37.70;25.45;;;;;;;13.64;86.58;101216.63;5073626;28;20049;-80
2022/11/10 03:25:02;;;;;;;37.83;26.65;;;;;;;13.66;86.16;101219.81;5073385;28;20044;-80
2022/11/10 03:28:05;;;;;;;40.40;25.92;;;;;;;13.74;86.65;101220.16;5073136;28;20400;-80
2022/11/10 03:31:09;;;;;;;35.08;25.15;;;;;;;13.73;86.22;101221.28;5073166;28;20037;-80
2022/11/10 03:34:12;;;;;;;44.00;27.25;;;;;;;13.75;86.19;101221.75;5072945;28;20040;-80
2022/11/10 03:37:16;;;;;;;40.13;27.92;;;;;;;13.74;85.90;101225.63;5072760;28;20400;-80
2022/11/10 03:40:19;;;;;;;38.63;27.30;;;;;;;13.77;86.23;101224.97;5073078;28;20048;-80
2022/11/10 03:43:22;;;;;;;38.60;26.98;;;;;;;13.82;85.65;101222.06;5072707;28;20414;-82
2022/11/10 03:46:26;;;;;;;38.72;25.77;;;;;;;13.80;85.74;101218.84;5073231;28;20056;-80
2022/11/10 03:49:30;;;;;;;38.88;27.52;;;;;;;13.75;86.04;101233.50;5073449;28;20040;-80
2022/11/10 03:52:33;;;;;;;38.22;27.45;;;;;;;13.73;85.92;101245.88;5072224;28;20411;-80
2022/11/10 03:55:37;;;;;;;37.55;25.55;;;;;;;13.77;86.29;101249.56;5072905;28;20049;-80
2022/11/10 03:58:40;;;;;;;39.70;26.63;;;;;;;13.79;86.13;101258.25;5072401;28;20040;-80
2022/11/10 04:01:44;;;;;;;33.88;24.90;;;;;;;13.67;86.34;101259.69;5072555;28;20040;-80
2022/11/10 04:18:20;;;;;;;35.17;25.25;;;;;;;13.58;87.38;101269.03;5092738;28;20047;-80
2022/11/10 04:21:23;;;;;;;36.10;23.85;;;;;;;13.61;87.21;101277.38;5092660;28;20044;-80
2022/11/10 04:24:27;;;;;;;36.50;23.58;;;;;;;13.64;86.88;101275.94;5092446;28;20036;-80
2022/11/10 04:27:31;;;;;;;39.15;24.00;;;;;;;13.73;86.74;101289.59;5092843;28;20523;-80
2022/11/10 04:30:34;;;;;;;37.88;23.75;;;;;;;13.70;86.54;101288.34;5092679;28;20495;-80
2022/11/10 04:33:38;;;;;;;37.30;23.00;;;;;;;13.62;87.26;101295.38;5092095;28;20040;-80
2022/11/10 04:36:43;;;;;;;36.95;22.02;;;;;;;13.67;87.28;101284.28;5081307;28;20048;-80
2022/11/10 04:39:46;;;;;;;39.85;25.00;;;;;;;13.66;86.66;101298.31;5071940;28;20037;-80
2022/11/10 04:42:50;;;;;;;41.67;27.02;;;;;;;13.62;86.93;101298.13;5072057;28;20048;-80
2022/11/10 04:45:53;;;;;;;42.67;26.77;;;;;;;13.64;86.56;101298.63;5072182;28;20037;-81
2022/11/10 04:48:58;;;;;;;51.03;28.50;;;;;;;13.65;86.32;101289.31;5072090;28;20040;-80
2022/11/10 04:52:01;;;;;;;40.72;26.77;;;;;;;13.58;85.80;101297.16;5071172;28;20041;-79
2022/11/10 04:55:05;;;;;;;43.78;26.55;;;;;;;13.68;85.73;101304.25;5070379;28;20442;-80
2022/11/10 04:58:08;;;;;;;44.33;27.35;;;;;;;13.69;85.56;101295.72;5052362;28;20037;-79
2022/11/10 05:01:17;;;;;;;50.80;27.27;;;;;;;13.69;85.75;101298.47;5067589;28;20411;-79
2022/11/10 05:04:21;;;;;;;45.42;27.88;;;;;;;13.66;86.20;101301.81;5056309;28;20045;-80
2022/11/10 05:07:24;;;;;;;44.45;27.17;;;;;;;13.61;86.00;101301.97;5072274;28;20052;-80
2022/11/10 05:10:27;;;;;;;41.50;25.50;;;;;;;13.65;86.64;101302.97;5071807;28;20040;-80
2022/11/10 05:13:32;;;;;;;41.88;26.85;;;;;;;13.70;86.46;101297.34;5071656;28;20048;-80
2022/11/10 05:16:36;;;;;;;46.20;26.63;;;;;;;13.60;86.52;101300.38;5071975;28;20037;-80
2022/11/10 05:19:40;;;;;;;40.85;24.98;;;;;;;13.62;86.29;101309.06;5072068;28;20052;-81
2022/11/10 05:22:45;;;;;;;40.08;24.00;;;;;;;13.64;86.15;101312.28;5074656;28;20040;-80
2022/11/10 05:25:48;;;;;;;30.08;18.92;;;;;;;13.55;86.41;101316.94;5070575;28;20040;-81
2022/11/10 05:28:52;;;;;;;34.63;18.10;;;;;;;13.54;85.72;101320.78;5075742;28;20036;-81
2022/11/10 05:31:57;;;;;;;27.52;17.42;;;;;;;13.52;84.98;101314.03;5075428;28;20041;-82
2022/11/10 05:35:01;;;;;;;21.48;13.45;;;;;;;13.46;84.72;101326.25;5075268;28;20036;-80
2022/11/10 05:38:04;;;;;;;25.73;14.30;;;;;;;13.41;84.70;101326.41;5065887;28;20048;-81
2022/11/10 05:41:08;;;;;;;19.05;12.00;;;;;;;13.39;84.26;101331.38;5075264;28;20510;-81
2022/11/10 05:44:11;;;;;;;15.90;10.65;;;;;;;13.46;84.11;101332.50;5074915;28;20049;-80
2022/11/10 05:47:14;;;;;;;17.02;11.60;;;;;;;13.50;84.20;101341.69;5070855;28;20041;-80
2022/11/10 05:50:19;;;;;;;18.00;11.43;;;;;;;13.46;84.49;101346.16;5073165;28;20379;-80
2022/11/10 05:53:22;;;;;;;17.95;11.10;;;;;;;13.44;84.06;101351.16;5074524;28;20040;-80
2022/11/10 05:56:26;;;;;;;16.40;10.70;;;;;;;13.36;84.07;101351.94;5075383;28;20048;-80
2022/11/10 05:59:29;;;;;;;12.98;8.07;;;;;;;13.34;83.65;101351.47;5074854;28;20037;-80
2022/11/10 06:02:32;;;;;;;12.77;7.82;;;;;;;13.29;83.81;101354.34;5072308;28;20425;-80
2022/11/10 06:05:36;;;;;;;13.40;9.15;;;;;;;13.31;83.72;101367.69;5075238;28;20052;-80
2022/11/10 06:08:39;;;;;;;11.18;7.78;;;;;;;13.36;83.94;101373.00;5070173;28;20066;-80
2022/11/10 06:11:43;;;;;;;29.38;19.27;;;;;;;13.38;83.97;101377.00;5067696;28;20048;-81
2022/11/10 06:14:46;;;;;;;15.15;9.75;;;;;;;13.43;83.91;101384.25;5071742;28;20119;-82
2022/11/10 06:17:51;;;;;;;9.13;7.05;;;;;;;13.39;83.62;101384.09;5075103;28;20051;-81
2022/11/10 06:20:55;;;;;;;11.63;7.75;;;;;;;13.43;83.34;101395.97;5074296;28;20047;-81
2022/11/10 06:24:01;;;;;;;18.63;9.55;;;;;;;13.34;83.38;101399.81;5074945;28;20040;-81
2022/11/10 06:27:04;;;;;;;11.10;7.10;;;;;;;13.28;83.83;101404.63;5073509;28;20411;-82
2022/11/10 06:30:09;;;;;;;22.23;11.15;;;;;;;13.36;83.92;101411.25;5076008;28;20047;-82
2022/11/10 06:33:13;;;;;;;17.38;10.88;;;;;;;13.27;84.32;101413.94;5063615;28;20044;-82
2022/11/10 06:36:16;;;;;;;18.52;13.10;;;;;;;13.25;84.78;101410.72;5074276;28;20028;-82
2022/11/10 06:39:20;;;;;;;19.45;13.10;;;;;;;13.33;84.89;101420.88;5064842;28;20040;-81
2022/11/10 06:42:24;;;;;;;22.70;13.77;;;;;;;13.29;85.44;101422.63;5074047;28;20040;-81
2022/11/10 06:45:27;;;;;;;19.38;13.23;;;;;;;13.32;85.56;101421.16;5076402;28;20044;-82
2022/11/10 06:48:31;;;;;;;19.17;13.43;;;;;;;13.38;85.58;101425.38;5079943;28;20041;-81
2022/11/10 06:51:34;;;;;;;22.77;14.93;;;;;;;13.31;85.80;101428.56;5071695;28;20032;-81
2022/11/10 06:54:37;;;;;;;24.98;15.63;;;;;;;13.34;85.83;101432.59;5072622;28;20029;-82
2022/11/10 06:57:41;;;;;;;23.65;16.90;;;;;;;13.33;85.83;101429.06;5067126;28;20044;-82
2022/11/10 07:00:44;;;;;;;26.13;17.52;;;;;;;13.28;86.28;101437.41;5073898;28;20048;-86
2022/11/10 07:03:48;;;;;;;26.90;16.38;;;;;;;13.35;86.27;101442.41;5074475;28;20044;-81
2022/11/10 07:06:51;;;;;;;29.13;18.10;;;;;;;13.32;86.25;101441.09;5072963;28;20040;-82
2022/11/10 07:09:54;;;;;;;27.17;18.15;;;;;;;13.37;86.23;101445.63;5058217;28;20485;-81
2022/11/10 07:12:59;;;;;;;29.95;16.80;;;;;;;13.39;86.41;101449.66;5112285;22;20047;-81
2022/11/10 07:16:04;;;;;;;25.75;17.38;;;;;;;13.36;86.76;101452.22;4996437;28;20038;-80
2022/11/10 07:19:08;;;;;;;28.17;18.85;;;;;;;13.31;86.99;101444.94;4996312;28;20042;-80
2022/11/10 07:22:11;;;;;;;31.10;20.80;;;;;;;13.32;87.52;101459.41;4995935;28;20046;-82
2022/11/10 07:25:14;;;;;;;28.05;20.25;;;;;;;13.34;87.50;101463.47;4997169;28;20039;-81
2022/11/10 07:28:18;;;;;;;27.88;18.98;;;;;;;13.34;87.88;101474.38;4996479;28;20042;-81
2022/11/10 07:31:22;;;;;;;30.67;20.10;;;;;;;13.35;87.97;101480.66;4996758;28;20497;-85
2022/11/10 07:34:25;;;;;;;30.10;15.63;;;;;;;14.51;84.79;101493.63;4998501;28;20425;-82
2022/11/10 07:37:28;;;;;;;25.02;13.68;;;;;;;15.13;79.89;101494.03;4996009;28;20034;-83
2022/11/10 07:40:33;;;;;;;15.90;9.82;;;;;;;15.55;76.70;101500.50;4986065;28;20038;-84
2022/11/10 07:43:37;;;;;;;15.90;9.57;;;;;;;15.87;74.53;101504.53;4994078;28;20041;-84
2022/11/10 07:46:40;;;;;;;9.32;6.75;;;;;;;16.00;73.07;101500.72;4991779;28;20054;-84
2022/11/10 07:49:44;;;;;;;15.50;7.90;;;;;;;16.22;71.82;101505.94;4996329;28;20519;-84
2022/11/10 07:52:47;;;;;;;151.68;15.90;;;;;;;16.45;71.29;101505.59;4990417;28;20057;-83
2022/11/10 07:55:51;;;;;;;12.68;6.53;;;;;;;16.45;72.04;101511.09;4999104;28;20038;-83
2022/11/10 07:58:54;;;;;;;20.48;11.07;;;;;;;16.18;71.22;101513.22;4998793;28;20054;-84
2022/11/10 08:01:58;;;;;;;13.27;7.82;;;;;;;16.33;73.01;101511.00;4997724;28;20046;-82
2022/11/10 08:05:01;;;;;;;17.25;10.50;;;;;;;16.31;73.18;101519.56;4997313;28;20049;-84
2022/11/10 08:08:05;;;;;;;25.00;15.40;;;;;;;16.48;72.17;101513.16;4999893;28;20038;-83
2022/11/10 08:11:08;;;;;;;21.63;14.65;;;;;;;16.59;71.72;101511.66;4996989;28;20046;-83
2022/11/10 08:14:12;;;;;;;34.78;19.63;;;;;;;16.65;71.32;101522.09;4999895;28;20038;-83
2022/11/10 08:17:15;;;;;;;30.60;21.05;;;;;;;16.34;72.59;101518.13;4994081;28;20042;-81
2022/11/10 08:20:19;;;;;;;28.20;21.08;;;;;;;15.75;75.62;101523.63;4978801;28;20050;-82
2022/11/10 08:23:22;;;;;;;32.33;21.83;;;;;;;15.53;77.29;101532.94;4985283;28;20043;-82
2022/11/10 08:26:26;;;;;;;30.95;21.80;;;;;;;15.25;78.11;101535.25;4994848;28;20050;-82
2022/11/10 08:29:29;;;;;;;29.70;20.27;;;;;;;15.34;79.22;101543.44;4989624;28;20034;-82
2022/11/10 08:32:33;;;;;;;27.40;20.20;;;;;;;15.33;78.75;101544.59;4994740;28;20084;-82
2022/11/10 08:35:38;;;;;;;31.88;20.83;;;;;;;15.23;79.61;101548.47;4995466;28;20050;-82
2022/11/10 08:38:42;;;;;;;;;;;;;;;15.00;80.97;101558.00;4995065;28;20034;-82
2022/11/10 08:41:45;;;;;;;28.00;20.50;;;;;;;15.11;81.25;101564.78;4994805;28;19914;-82
2022/11/10 08:44:48;;;;;;;26.45;19.55;;;;;;;15.25;80.35;101565.38;4994763;28;20042;-82
2022/11/10 08:47:57;;;;;;;25.75;19.77;;;;;;;15.52;79.98;101575.19;4994873;28;20046;-82
2022/11/10 08:51:00;;;;;;;28.70;21.10;;;;;;;15.69;79.14;101580.63;4994654;28;20035;-82
2022/11/10 08:54:04;;;;;;;24.50;19.13;;;;;;;15.83;77.92;101591.38;4994325;28;20047;-82
2022/11/10 08:57:07;;;;;;;27.88;19.73;;;;;;;15.67;78.66;101591.09;4994089;28;20038;-82
2022/11/10 09:00:12;;;;;;;26.30;18.60;;;;;;;15.48;79.84;101590.66;4994866;28;20050;-82
2022/11/10 09:03:21;;;;;;;24.00;17.33;;;;;;;15.36;80.39;101605.03;4997381;28;20047;-82
2022/11/10 09:06:25;;;;;;;26.38;18.05;;;;;;;15.18;81.35;101610.84;4998004;28;20050;-81
2022/11/10 09:09:28;;;;;;;29.40;19.23;;;;;;;15.08;82.04;101624.88;4997657;28;20034;-82
2022/11/10 09:12:32;;;;;;;29.40;18.83;;;;;;;14.96;82.25;101615.38;4997836;28;20050;-82
2022/11/10 09:15:35;;;;;;;20.38;14.48;;;;;;;14.85;80.29;101633.25;4998016;28;20051;-83
2022/11/10 09:18:39;;;;;;;23.95;15.95;;;;;;;14.86;80.40;101639.53;4997874;28;20451;-81
2022/11/10 09:21:42;;;;;;;20.60;14.63;;;;;;;14.82;79.28;101647.59;4997320;28;20038;-82
2022/11/10 09:24:46;;;;;;;20.63;14.68;;;;;;;14.84;79.25;101658.22;4997158;28;20042;-83
2022/11/10 09:27:49;;;;;;;22.65;15.02;;;;;;;14.81;79.85;101653.38;4997299;28;20042;-82
2022/11/10 09:30:52;;;;;;;24.63;15.40;;;;;;;14.94;79.45;101658.72;4997733;28;20046;-82
2022/11/10 09:33:58;;;;;;;31.08;18.90;;;;;;;15.05;79.24;101658.38;4996897;28;20077;-83
2022/11/10 09:37:01;;;;;;;23.65;13.63;;;;;;;15.15;78.81;101658.88;4997649;28;20042;-82
2022/11/10 09:40:05;;;;;;;26.35;16.88;;;;;;;15.37;77.50;101664.19;4997541;28;20051;-81
2022/11/10 09:43:18;;;;;;;28.25;17.23;;;;;;;15.60;76.98;101672.22;4997164;28;20042;-82
2022/11/10 09:46:26;;;;;;;27.52;17.02;;;;;;;15.78;75.88;101682.06;4997335;28;20039;-83
2022/11/10 09:49:49;;;;;;;24.63;15.77;;;;;;;15.81;75.56;101684.13;4997392;28;20046;-82
2022/11/10 09:52:53;;;;;;;28.98;17.40;;;;;;;16.00;74.67;101687.28;4997199;28;20042;-82
2022/11/10 09:56:01;;;;;;;30.35;18.40;;;;;;;15.99;74.18;101690.38;4997141;28;20046;-82
2022/11/10 09:59:17;;;;;;;27.30;17.73;;;;;;;16.00;74.42;101690.03;4997489;28;20047;-82
2022/11/10 10:02:24;;;;;;;;;;;;;;;15.82;75.24;101704.94;4997840;28;20054;-82
2022/11/10 10:05:47;;;;;;;23.65;14.27;;;;;;;15.63;76.03;101704.50;4997597;28;20368;-82
2022/11/10 10:09:06;;;;;;;39.30;17.50;;;;;;;15.66;76.37;101701.09;4996677;28;20035;-82
2022/11/10 10:12:39;;;;;;;30.83;17.65;;;;;;;15.61;77.17;101704.81;4995695;28;20050;-81
2022/11/10 10:16:06;;;;;;;31.02;19.02;;;;;;;15.75;76.77;101701.88;4992655;28;20783;-80
2022/11/10 10:19:28;;;;;;;29.90;19.02;;;;;;;16.13;75.19;101705.50;4995586;28;20042;-81
2022/11/10 10:23:04;;;;;;;33.63;19.58;;;;;;;16.23;74.28;101704.34;4995970;28;20043;-81
2022/11/10 10:26:14;;;;;;;31.25;19.70;;;;;;;16.21;74.42;101696.41;4997286;28;20497;-82
2022/11/10 10:29:24;;;;;;;29.02;16.90;;;;;;;16.26;73.11;101712.72;4999595;28;20494;-80
2022/11/10 10:32:28;;;;;;;29.73;18.58;;;;;;;16.33;73.19;101711.41;4993347;28;20054;-80
2022/11/10 10:35:32;;;;;;;30.70;17.63;;;;;;;16.36;73.34;101707.97;4992307;28;20046;-81
2022/11/10 10:38:39;;;;;;;27.95;16.88;;;;;;;16.36;73.07;101713.47;4990898;28;20046;-82
2022/11/10 10:41:44;;;;;;;34.83;19.23;;;;;;;16.54;72.18;101712.28;4996848;28;20050;-81
2022/11/10 10:45:14;;;;;;;32.80;18.92;;;;;;;16.98;71.37;101719.94;4996612;28;20038;-81
2022/11/10 10:48:28;;;;;;;32.05;18.67;;;;;;;17.32;69.93;101715.34;4996587;28;20038;-81
2022/11/10 10:51:32;;;;;;;30.02;18.65;;;;;;;17.39;69.26;101718.34;4997163;28;20520;-81
2022/11/10 10:54:37;;;;;;;29.13;17.85;;;;;;;17.71;68.20;101719.53;4997148;28;20050;-81
2022/11/10 10:57:50;;;;;;;20.15;13.10;;;;;;;17.76;67.47;101722.09;4996783;28;20042;-81
2022/11/10 11:00:55;;;;;;;23.77;15.77;;;;;;;17.66;68.16;101717.81;4996345;28;20047;-81
2022/11/10 11:04:03;;;;;;;25.23;15.45;;;;;;;17.64;68.44;101725.59;4997526;28;20046;-81
2022/11/10 11:07:27;;;;;;;22.45;15.88;;;;;;;17.50;68.52;101731.34;4996218;28;20046;-82
2022/11/10 11:10:33;;;;;;;22.63;14.95;;;;;;;17.62;68.45;101736.13;4996940;28;20042;-82
2022/11/10 11:13:37;;;;;;;24.20;14.80;;;;;;;17.83;68.35;101744.31;4995254;28;20046;-82
2022/11/10 11:16:50;;;;;;;24.25;16.45;;;;;;;17.85;68.45;101742.06;4995067;28;20043;-82
2022/11/10 11:19:55;;;;;;;22.90;15.48;;;;;;;17.56;68.61;101745.72;4995884;28;20047;-82
2022/11/10 11:23:08;;;;;;;24.25;14.77;;;;;;;17.43;68.52;101755.81;4992944;28;20046;-82
2022/11/10 11:26:21;;;;;;;24.38;15.73;;;;;;;17.18;69.94;101747.78;4995422;28;20042;-82
2022/11/10 11:29:58;;;;;;;20.13;13.95;;;;;;;17.35;70.00;101755.91;4997065;28;20050;-82
2022/11/10 11:33:15;;;;;;;21.73;14.68;;;;;;;17.71;68.52;101756.13;4992217;28;20058;-82
2022/11/10 11:36:38;;;;;;;21.13;14.48;;;;;;;17.74;67.19;101749.13;4992715;28;20512;-82
2022/11/10 11:39:55;;;;;;;19.27;13.15;;;;;;;17.70;67.78;101757.25;4992912;28;20050;-82
2022/11/10 11:43:25;;;;;;;20.00;13.82;;;;;;;17.32;68.50;101757.38;4992360;28;20417;-82
2022/11/10 11:46:57;;;;;;;20.67;13.52;;;;;;;17.08;70.66;101759.97;4994770;28;20425;-81
2022/11/10 11:50:19;;;;;;;20.02;13.57;;;;;;;17.15;70.64;101756.69;4995965;28;20497;-82
2022/11/10 11:53:37;;;;;;;19.20;13.40;;;;;;;17.19;70.60;101768.63;4990655;28;20046;-82
2022/11/10 11:56:48;;;;;;;21.70;14.60;;;;;;;17.26;70.60;101766.97;4996569;28;20047;-81
2022/11/10 12:00:11;;;;;;;19.65;15.32;;;;;;;17.34;70.78;101760.59;4996817;28;20405;-82
2022/11/10 12:03:34;;;;;;;20.25;14.98;;;;;;;17.29;70.04;101763.53;4994497;28;20047;-81
2022/11/10 12:07:06;;;;;;;24.00;15.32;;;;;;;17.35;70.54;101762.22;4992355;28;20038;-81
2022/11/10 12:10:23;;;;;;;23.27;12.35;;;;;;;17.29;70.09;101779.22;4996313;28;20042;-81
2022/11/10 12:13:33;;;;;;;23.90;14.40;;;;;;;17.00;71.48;101778.13;4990583;28;20060;-83
2022/11/10 12:16:37;;;;;;;16.05;12.63;;;;;;;16.75;71.29;101778.28;4997439;28;20047;-83
2022/11/10 12:20:24;;;;;;;19.77;13.65;;;;;;;16.44;72.57;101787.59;4998382;28;20134;-83
2022/11/10 12:23:48;;;;;;;;;;;;;;;16.32;72.96;101789.38;4995682;28;20042;-83
2022/11/10 12:27:03;;;;;;;21.88;14.55;;;;;;;16.26;73.88;101792.31;4997282;28;19914;-83
2022/11/10 12:30:13;;;;;;;17.58;12.43;;;;;;;16.18;74.09;101793.16;4996514;28;20038;-83
2022/11/10 12:33:37;;;;;;;22.98;15.40;;;;;;;16.15;73.89;101796.53;4996654;28;20047;-83
2022/11/10 12:36:41;;;;;;;24.05;16.20;;;;;;;16.13;73.86;101804.28;4995355;28;20046;-83
2022/11/10 12:39:53;;;;;;;22.98;15.43;;;;;;;16.11;73.80;101806.56;4994863;28;20042;-83
2022/11/10 12:43:04;;;;;;;23.42;15.98;;;;;;;16.10;73.85;101810.41;4992864;28;20039;-83
2022/11/10 12:46:11;;;;;;;25.40;17.23;;;;;;;16.11;73.84;101808.47;4996541;28;20046;-83
2022/11/10 12:49:34;;;;;;;28.50;19.38;;;;;;;16.09;74.90;101817.06;4996407;28;20043;-84
2022/11/10 12:52:50;;;;;;;27.65;20.55;;;;;;;15.97;76.28;101818.84;4986479;28;20046;-83
2022/11/10 12:56:00;;;;;;;34.97;24.15;;;;;;;15.79;78.23;101823.53;4993021;28;20042;-84
2022/11/10 12:59:19;;;;;;;38.88;23.20;;;;;;;15.75;79.04;101834.34;4991157;28;20046;-84
2022/11/10 13:02:31;;;;;;;32.67;21.85;;;;;;;15.77;79.07;101834.03;4991733;28;20046;-83
2022/11/10 13:05:40;;;;;;;36.83;23.65;;;;;;;15.73;78.77;101838.53;4995407;28;20047;-83
2022/11/10 13:08:45;;;;;;;37.47;25.05;;;;;;;15.72;79.12;101839.66;4990752;28;20046;-83
2022/11/10 13:12:21;;;;;;;32.72;23.42;;;;;;;15.76;78.97;101840.63;4985592;28;20042;-84
2022/11/10 13:15:53;;;;;;;32.42;23.05;;;;;;;15.77;78.78;101845.00;4990231;28;20050;-83
2022/11/10 13:19:00;;;;;;;30.85;20.77;;;;;;;15.82;78.59;101847.56;4996634;28;20054;-84
2022/11/10 13:22:09;;;;;;;33.22;22.23;;;;;;;15.86;78.24;101845.78;5081255;22;20048;-83
2022/11/10 13:25:34;;;;;;;29.65;21.25;;;;;;;15.88;78.02;101853.72;5072210;28;20040;-84
2022/11/10 13:28:47;;;;;;;32.03;23.17;;;;;;;15.91;77.62;101850.31;5072023;28;20036;-86
2022/11/10 13:31:53;;;;;;;31.88;21.83;;;;;;;15.94;77.86;101855.97;5072266;28;20492;-83
2022/11/10 13:35:28;;;;;;;35.53;21.83;;;;;;;15.99;77.44;101858.56;5072215;28;20045;-86
2022/11/10 13:38:31;;;;;;;31.48;21.65;;;;;;;16.03;77.19;101859.50;5072418;28;20036;-84
2022/11/10 13:41:52;;;;;;;26.98;20.48;;;;;;;16.08;76.86;101862.09;5072239;28;20037;-85
2022/11/10 13:45:26;;;;;;;29.38;20.13;;;;;;;16.16;76.06;101874.19;5072339;28;20048;-86
2022/11/10 13:48:41;;;;;;;30.00;21.20;;;;;;;16.18;75.35;101866.44;5074241;28;20033;-85
2022/11/10 13:52:09;;;;;;;26.33;20.08;;;;;;;16.22;75.87;101878.38;5060497;28;20062;-85
2022/11/10 13:55:22;;;;;;;26.63;18.10;;;;;;;16.27;75.76;101869.97;5052828;28;20033;-85
2022/11/10 13:58:32;;;;;;;24.90;20.02;;;;;;;16.30;75.36;101876.75;5055796;28;20049;-85
2022/11/10 14:01:35;;;;;;;24.90;18.15;;;;;;;16.32;74.99;101888.22;5053691;28;20041;-85
2022/11/10 14:04:41;;;;;;;25.40;17.33;;;;;;;16.36;74.88;101880.94;5036296;28;20045;-85
2022/11/10 14:07:45;;;;;;;27.73;19.35;;;;;;;16.36;74.78;101884.50;5055485;28;20041;-85
2022/11/10 14:11:01;;;;;;;30.38;19.83;;;;;;;16.37;74.33;101890.78;5055364;28;20040;-85
2022/11/10 14:14:12;;;;;;;27.67;18.85;;;;;;;16.36;74.76;101906.44;5055311;28;20037;-84
2022/11/10 14:17:22;;;;;;;28.60;19.90;;;;;;;16.34;74.57;101903.25;5055295;28;20041;-83
2022/11/10 14:20:30;;;;;;;27.55;20.05;;;;;;;16.34;74.39;101899.69;5052799;28;20034;-86
2022/11/10 14:23:46;;;;;;;27.60;19.30;;;;;;;16.29;74.04;101900.66;5048154;28;20045;-85
2022/11/10 14:26:57;;;;;;;27.73;21.23;;;;;;;16.26;74.00;101907.59;5036018;28;20041;-84
2022/11/10 14:30:23;;;;;;;28.17;19.52;;;;;;;16.23;74.56;101919.22;5035721;28;20041;-84